createdAt,value
2019-03-28T00:00:09.568Z,15.93
2019-03-28T00:02:43.861Z,15.63
2019-03-28T00:05:15.802Z,16.57
2019-03-28T00:07:47.622Z,16.77
2019-03-28T00:10:20.545Z,16.50
2019-03-28T00:12:52.578Z,16.80
2019-03-28T00:15:24.538Z,17.27
2019-03-28T00:17:56.473Z,17.23
2019-03-28T00:20:28.302Z,15.57
2019-03-28T00:23:17.040Z,16.30
2019-03-28T00:25:49.414Z,17.10
2019-03-28T00:28:21.355Z,18.53
2019-03-28T00:30:53.305Z,19.40
2019-03-28T00:33:26.162Z,19.93
2019-03-28T00:35:58.047Z,21.30
2019-03-28T00:38:30.005Z,20.93
2019-03-28T00:41:01.843Z,21.33
2019-03-28T00:43:33.824Z,17.53
2019-03-28T00:46:05.927Z,17.37
2019-03-28T00:48:37.871Z,16.13
2019-03-28T00:51:09.836Z,16.00
2019-03-28T00:53:41.885Z,15.83
2019-03-28T00:56:14.337Z,15.13
2019-03-28T00:58:46.530Z,15.40
2019-03-28T01:01:19.082Z,15.57
2019-03-28T01:03:51.577Z,15.87
2019-03-28T01:06:23.409Z,14.30
2019-03-28T01:08:55.509Z,15.13
2019-03-28T01:11:27.640Z,15.77
2019-03-28T01:13:59.654Z,16.50
2019-03-28T01:16:32.119Z,15.43
2019-03-28T01:19:04.147Z,14.53
2019-03-28T01:21:36.185Z,14.20
2019-03-28T01:24:08.524Z,14.07
2019-03-28T01:26:42.221Z,13.03
2019-03-28T01:29:14.412Z,13.10
2019-03-28T01:31:46.258Z,13.37
2019-03-28T01:34:18.630Z,14.43
2019-03-28T01:36:50.839Z,12.80
2019-03-28T01:39:22.814Z,13.73
2019-03-28T01:41:54.678Z,14.93
2019-03-28T01:44:26.554Z,13.77
2019-03-28T01:46:58.422Z,14.57
2019-03-28T01:49:30.320Z,13.17
2019-03-28T01:52:04.379Z,14.67
2019-03-28T01:54:36.247Z,13.73
2019-03-28T01:57:11.134Z,14.67
2019-03-28T01:59:41.499Z,14.03
2019-03-28T02:02:13.587Z,13.57
2019-03-28T02:04:46.619Z,14.80
2019-03-28T02:07:18.609Z,14.30
2019-03-28T02:09:50.542Z,14.40
2019-03-28T02:12:22.404Z,14.33
2019-03-28T02:14:54.279Z,14.03
2019-03-28T02:17:26.094Z,13.47
2019-03-28T02:19:58.014Z,12.63
2019-03-28T02:22:29.886Z,12.87
2019-03-28T02:25:01.852Z,14.67
2019-03-28T02:27:34.163Z,13.40
2019-03-28T02:30:10.063Z,12.93
2019-03-28T02:32:41.987Z,12.80
2019-03-28T02:35:13.914Z,12.33
2019-03-28T02:37:45.908Z,14.13
2019-03-28T02:40:17.983Z,12.87
2019-03-28T02:42:50.655Z,12.30
2019-03-28T02:45:23.108Z,11.70
2019-03-28T02:47:54.944Z,12.13
2019-03-28T02:50:26.790Z,12.37
2019-03-28T02:52:58.635Z,11.93
2019-03-28T02:55:30.580Z,12.90
2019-03-28T02:58:02.392Z,12.67
2019-03-28T03:00:34.214Z,12.97
2019-03-28T03:03:06.133Z,12.50
2019-03-28T03:05:38.136Z,12.70
2019-03-28T03:08:09.999Z,11.80
2019-03-28T03:10:41.859Z,11.50
2019-03-28T03:13:13.663Z,12.43
2019-03-28T03:15:45.642Z,12.17
2019-03-28T03:18:21.282Z,11.20
2019-03-28T03:20:51.025Z,10.17
2019-03-28T03:23:22.879Z,10.60
2019-03-28T03:25:54.886Z,11.27
2019-03-28T03:28:26.823Z,10.97
2019-03-28T03:30:58.632Z,10.73
2019-03-28T03:33:30.510Z,10.10
2019-03-28T03:36:02.417Z,9.70
2019-03-28T03:38:34.507Z,10.87
2019-03-28T03:41:06.556Z,10.73
2019-03-28T03:43:38.656Z,9.23
2019-03-28T03:46:10.844Z,9.60
2019-03-28T03:48:42.716Z,9.47
2019-03-28T03:51:14.714Z,10.63
2019-03-28T03:53:46.784Z,9.80
2019-03-28T03:56:18.585Z,9.73
2019-03-28T03:58:50.546Z,9.13
2019-03-28T04:01:22.488Z,8.97
2019-03-28T04:03:55.751Z,9.00
2019-03-28T04:06:27.828Z,9.00
2019-03-28T04:08:59.760Z,9.00
2019-03-28T04:11:33.551Z,9.50
2019-03-28T04:14:05.652Z,9.97
2019-03-28T04:16:37.594Z,10.70
2019-03-28T04:19:09.475Z,10.60
2019-03-28T04:21:41.293Z,10.53
2019-03-28T04:24:13.902Z,10.50
2019-03-28T04:26:46.285Z,9.97
2019-03-28T04:29:18.197Z,10.73
2019-03-28T04:31:50.600Z,10.43
2019-03-28T04:34:22.668Z,9.87
2019-03-28T04:36:56.378Z,11.30
2019-03-28T04:39:28.298Z,11.23
2019-03-28T04:42:00.156Z,10.40
2019-03-28T04:44:32.012Z,9.63
2019-03-28T04:47:04.034Z,8.77
2019-03-28T04:49:36.305Z,10.40
2019-03-28T04:52:08.230Z,10.57
2019-03-28T04:54:40.308Z,10.37
2019-03-28T04:57:12.231Z,10.93
2019-03-28T04:59:44.237Z,10.27
2019-03-28T05:02:16.407Z,10.10
2019-03-28T05:04:48.239Z,10.27
2019-03-28T05:07:20.515Z,10.50
2019-03-28T05:09:53.413Z,10.43
2019-03-28T05:12:25.583Z,10.47
2019-03-28T05:14:58.305Z,10.70
2019-03-28T05:17:31.764Z,10.57
2019-03-28T05:20:03.860Z,10.20
2019-03-28T05:22:36.774Z,9.50
2019-03-28T05:25:10.329Z,10.50
2019-03-28T05:27:42.482Z,8.63
2019-03-28T05:30:15.003Z,9.83
2019-03-28T05:32:47.060Z,10.50
2019-03-28T05:35:18.976Z,9.10
2019-03-28T05:37:50.981Z,8.83
2019-03-28T05:40:23.046Z,10.30
2019-03-28T05:42:54.967Z,10.23
2019-03-28T05:45:26.924Z,10.70
2019-03-28T05:48:00.448Z,11.30
2019-03-28T05:50:32.306Z,11.43
2019-03-28T05:53:05.687Z,9.93
2019-03-28T05:55:37.536Z,10.90
2019-03-28T05:58:09.849Z,11.30
2019-03-28T06:00:42.746Z,11.30
2019-03-28T06:03:14.725Z,11.10
2019-03-28T06:05:47.049Z,11.93
2019-03-28T06:08:18.936Z,12.00
2019-03-28T06:10:51.948Z,10.57
2019-03-28T06:13:23.818Z,11.07
2019-03-28T06:15:56.013Z,10.20
2019-03-28T06:18:27.871Z,11.53
2019-03-28T06:20:59.786Z,9.97
2019-03-28T06:23:31.696Z,11.43
2019-03-28T06:26:04.212Z,23.57
2019-03-28T06:28:36.989Z,11.03
2019-03-28T06:31:08.897Z,10.77
2019-03-28T06:33:40.754Z,10.83
2019-03-28T06:36:14.323Z,10.90
2019-03-28T06:38:46.298Z,12.10
2019-03-28T06:41:18.170Z,12.07
2019-03-28T06:43:50.996Z,12.13
2019-03-28T06:46:23.870Z,10.67
2019-03-28T06:48:55.777Z,11.80
2019-03-28T06:51:27.632Z,12.10
2019-03-28T06:53:59.606Z,12.57
2019-03-28T06:56:31.436Z,13.60
2019-03-28T06:59:03.283Z,13.10
2019-03-28T07:01:37.879Z,13.37
2019-03-28T07:04:09.838Z,13.90
2019-03-28T07:06:41.614Z,13.90
2019-03-28T07:09:13.498Z,15.60
2019-03-28T07:11:45.463Z,15.33
2019-03-28T07:14:17.865Z,16.10
2019-03-28T07:16:49.774Z,16.33
2019-03-28T07:19:22.036Z,17.80
2019-03-28T07:21:53.927Z,16.43
2019-03-28T07:24:25.784Z,16.47
2019-03-28T07:26:58.384Z,15.20
2019-03-28T07:29:31.276Z,15.73
2019-03-28T07:32:03.123Z,15.20
2019-03-28T07:34:35.507Z,16.07
2019-03-28T07:37:07.594Z,14.87
2019-03-28T07:39:39.759Z,13.93
2019-03-28T07:42:12.094Z,15.13
2019-03-28T07:44:44.181Z,14.77
2019-03-28T07:47:15.984Z,15.13
2019-03-28T07:49:47.866Z,14.47
2019-03-28T07:52:20.176Z,15.10
2019-03-28T07:54:52.181Z,13.90
2019-03-28T07:57:24.982Z,14.10
2019-03-28T08:00:03.966Z,14.07
2019-03-28T08:02:31.015Z,13.97
2019-03-28T08:05:02.917Z,12.53
2019-03-28T08:07:44.933Z,13.17
2019-03-28T08:10:08.871Z,14.10
2019-03-28T08:12:40.720Z,13.00
2019-03-28T08:15:14.717Z,14.27
2019-03-28T08:17:46.748Z,13.40
2019-03-28T08:20:18.880Z,14.47
2019-03-28T08:22:50.941Z,14.07
2019-03-28T08:25:23.217Z,12.97
2019-03-28T08:27:57.650Z,13.30
2019-03-28T08:30:39.980Z,12.27
2019-03-28T08:33:11.887Z,12.90
2019-03-28T08:35:43.913Z,12.03
2019-03-28T08:38:18.025Z,12.00
2019-03-28T08:40:51.580Z,12.57
2019-03-28T08:43:23.469Z,12.57
2019-03-28T08:45:55.355Z,12.83
2019-03-28T08:48:27.269Z,12.63
2019-03-28T08:50:59.081Z,13.77
2019-03-28T08:53:31.930Z,12.43
2019-03-28T08:56:03.908Z,11.60
2019-03-28T08:58:38.098Z,12.33
2019-03-28T09:01:09.764Z,12.10
2019-03-28T09:03:41.843Z,14.00
2019-03-28T09:06:16.902Z,14.90
2019-03-28T09:08:47.712Z,15.03
2019-03-28T09:11:21.500Z,14.57
2019-03-28T09:13:53.272Z,11.87
2019-03-28T09:16:26.217Z,13.43
2019-03-28T09:18:58.109Z,13.37
2019-03-28T09:21:29.965Z,13.27
2019-03-28T09:24:01.880Z,11.77
2019-03-28T09:26:33.765Z,12.03
2019-03-28T09:29:05.679Z,13.73
2019-03-28T09:31:37.646Z,27.97
2019-03-28T09:34:09.557Z,18.90
2019-03-28T09:36:41.502Z,17.77
2019-03-28T09:39:13.408Z,19.90
2019-03-28T09:41:45.712Z,17.33
2019-03-28T09:44:17.549Z,11.83
2019-03-28T09:46:49.449Z,12.70
2019-03-28T09:49:21.309Z,13.63
2019-03-28T09:51:53.253Z,11.13
2019-03-28T09:54:25.153Z,11.00
2019-03-28T09:56:57.114Z,18.57
2019-03-28T09:59:29.001Z,11.20
2019-03-28T10:02:01.974Z,9.40
2019-03-28T10:04:34.834Z,4.77
2019-03-28T10:07:07.305Z,7.80
2019-03-28T10:09:39.258Z,7.73
2019-03-28T10:12:11.462Z,8.63
2019-03-28T10:14:43.432Z,9.23
2019-03-28T10:17:16.103Z,8.07
2019-03-28T10:19:48.022Z,6.93
2019-03-28T10:22:22.324Z,7.90
2019-03-28T10:24:54.534Z,6.47
2019-03-28T10:27:27.280Z,6.17
2019-03-28T10:29:59.285Z,6.10
2019-03-28T10:32:32.392Z,6.27
2019-03-28T10:35:06.923Z,7.27
2019-03-28T10:37:37.968Z,6.40
2019-03-28T10:40:10.526Z,8.50
2019-03-28T10:42:43.445Z,7.20
2019-03-28T10:45:15.231Z,6.93
2019-03-28T10:47:48.284Z,7.03
2019-03-28T10:50:20.416Z,6.50
2019-03-28T10:52:53.092Z,6.03
2019-03-28T10:55:24.874Z,5.10
2019-03-28T10:57:56.856Z,5.03
2019-03-28T11:00:28.646Z,5.10
2019-03-28T11:03:00.919Z,6.00
2019-03-28T11:05:32.639Z,5.80
2019-03-28T11:08:04.705Z,6.40
2019-03-28T11:10:36.441Z,6.73
2019-03-28T11:13:09.719Z,7.97
2019-03-28T11:15:41.777Z,6.77
2019-03-28T11:18:13.796Z,5.93
2019-03-28T11:20:46.323Z,7.00
2019-03-28T11:23:18.179Z,5.60
2019-03-28T11:25:50.167Z,6.37
2019-03-28T11:28:23.488Z,6.33
2019-03-28T11:30:55.622Z,6.93
2019-03-28T11:33:27.450Z,7.30
2019-03-28T11:35:59.393Z,8.17
2019-03-28T11:38:31.889Z,7.80
2019-03-28T11:41:04.917Z,6.50
2019-03-28T11:43:36.753Z,6.63
2019-03-28T11:46:08.797Z,7.03
2019-03-28T11:48:40.761Z,7.10
2019-03-28T11:51:13.073Z,7.00
2019-03-28T11:53:45.068Z,7.60
2019-03-28T11:56:18.481Z,7.93
2019-03-28T11:58:50.617Z,9.73
2019-03-28T12:01:23.195Z,8.20
2019-03-28T12:03:55.233Z,8.30
2019-03-28T12:06:27.078Z,7.40
2019-03-28T12:08:58.914Z,6.40
2019-03-28T12:11:30.796Z,6.70
2019-03-28T12:14:02.651Z,7.10
2019-03-28T12:16:34.529Z,6.80
2019-03-28T12:19:06.459Z,7.13
2019-03-28T12:21:39.387Z,6.30
2019-03-28T12:24:11.650Z,6.50
2019-03-28T12:26:43.527Z,6.87
2019-03-28T12:29:15.410Z,6.90
2019-03-28T12:31:47.268Z,8.33
2019-03-28T12:34:19.129Z,9.03
2019-03-28T12:36:51.221Z,8.60
2019-03-28T12:39:23.091Z,7.47
2019-03-28T12:41:54.922Z,6.90
2019-03-28T12:44:26.793Z,5.67
2019-03-28T12:46:58.626Z,5.50
2019-03-28T12:49:30.586Z,4.50
2019-03-28T12:52:02.450Z,4.90
2019-03-28T12:54:34.408Z,5.30
2019-03-28T12:57:07.242Z,5.80
2019-03-28T12:59:40.622Z,6.07
2019-03-28T13:02:27.176Z,6.33
2019-03-28T13:04:47.157Z,7.20
2019-03-28T13:07:19.261Z,6.27
2019-03-28T13:09:51.701Z,5.90
2019-03-28T13:12:24.184Z,5.93
2019-03-28T13:14:56.042Z,5.83
2019-03-28T13:17:28.028Z,6.67
2019-03-28T13:20:00.590Z,6.23
2019-03-28T13:22:32.501Z,4.67
2019-03-28T13:25:04.721Z,7.13
2019-03-28T13:27:36.988Z,5.33
2019-03-28T13:30:09.753Z,7.77
2019-03-28T13:32:43.352Z,5.13
2019-03-28T13:35:15.502Z,5.00
2019-03-28T13:37:48.523Z,6.27
2019-03-28T13:40:20.712Z,4.87
2019-03-28T13:42:53.210Z,4.73
2019-03-28T13:45:25.756Z,3.67
2019-03-28T13:47:58.083Z,4.17
2019-03-28T13:50:31.535Z,3.80
2019-03-28T13:53:04.350Z,4.47
2019-03-28T13:55:37.506Z,4.33
2019-03-28T13:58:10.110Z,4.37
2019-03-28T14:00:42.268Z,2.87
2019-03-28T14:03:14.171Z,2.47
2019-03-28T14:05:46.243Z,2.03
2019-03-28T14:08:18.642Z,1.90
2019-03-28T14:10:50.754Z,1.93
2019-03-28T14:13:22.802Z,2.07
2019-03-28T14:15:54.680Z,1.83
2019-03-28T14:18:26.600Z,2.07
2019-03-28T14:20:58.856Z,1.90
2019-03-28T14:23:30.799Z,2.10
2019-03-28T14:26:02.946Z,2.50
2019-03-28T14:28:35.461Z,2.70
2019-03-28T14:31:07.869Z,2.40
2019-03-28T14:33:40.485Z,3.80
2019-03-28T14:36:12.865Z,2.87
2019-03-28T14:38:44.940Z,2.33
2019-03-28T14:41:17.536Z,1.57
2019-03-28T14:43:49.737Z,1.70
2019-03-28T14:46:21.742Z,1.70
2019-03-28T14:48:54.249Z,1.70
2019-03-28T14:51:26.243Z,2.00
2019-03-28T14:53:58.965Z,1.37
2019-03-28T14:56:30.911Z,1.57
2019-03-28T14:59:03.702Z,1.50
2019-03-28T15:01:36.152Z,1.80
2019-03-28T15:04:08.653Z,2.00
2019-03-28T15:06:40.649Z,2.20
2019-03-28T15:09:12.687Z,2.00
2019-03-28T15:11:44.761Z,2.50
2019-03-28T15:14:16.647Z,2.07
2019-03-28T15:16:48.782Z,2.57
2019-03-28T15:19:21.559Z,2.60
2019-03-28T15:21:53.747Z,2.23
2019-03-28T15:24:25.649Z,3.07
2019-03-28T15:26:57.682Z,2.63
2019-03-28T15:29:29.469Z,2.97
2019-03-28T15:32:03.249Z,3.70
2019-03-28T15:34:35.153Z,3.13
2019-03-28T15:37:07.659Z,3.87
2019-03-28T15:39:39.489Z,3.27
2019-03-28T15:42:11.466Z,3.47
2019-03-28T15:44:43.432Z,3.50
2019-03-28T15:47:15.944Z,2.93
2019-03-28T15:49:47.850Z,1.70
2019-03-28T15:52:21.195Z,1.90
2019-03-28T15:54:53.412Z,2.10
2019-03-28T15:57:25.402Z,2.60
2019-03-28T15:59:57.347Z,2.53
2019-03-28T16:02:29.311Z,2.77
2019-03-28T16:05:01.896Z,3.00
2019-03-28T16:07:33.993Z,2.87
2019-03-28T16:10:08.009Z,3.10
2019-03-28T16:12:40.809Z,2.70
2019-03-28T16:15:13.595Z,3.23
2019-03-28T16:17:47.634Z,3.30
2019-03-28T16:20:20.223Z,2.83
2019-03-28T16:22:53.208Z,2.70
2019-03-28T16:25:25.223Z,2.53
2019-03-28T16:27:57.138Z,1.97
2019-03-28T16:30:39.054Z,2.20
2019-03-28T16:33:11.012Z,2.50
2019-03-28T16:35:43.215Z,2.40
2019-03-28T16:38:15.076Z,2.20
2019-03-28T16:40:47.951Z,2.33
2019-03-28T16:43:21.245Z,2.30
2019-03-28T16:45:53.339Z,2.00
2019-03-28T16:48:25.343Z,1.97
2019-03-28T16:50:59.746Z,2.00
2019-03-28T16:53:31.665Z,2.30
2019-03-28T16:56:03.751Z,2.10
2019-03-28T16:58:36.662Z,2.70
2019-03-28T17:01:08.518Z,2.70
2019-03-28T17:03:41.560Z,2.23
2019-03-28T17:06:13.804Z,2.40
2019-03-28T17:08:48.141Z,2.73
2019-03-28T17:11:20.567Z,3.57
2019-03-28T17:13:52.510Z,4.73
2019-03-28T17:16:25.174Z,2.67
2019-03-28T17:18:57.154Z,4.10
2019-03-28T17:21:29.129Z,5.40
2019-03-28T17:24:01.243Z,4.10
2019-03-28T17:26:33.237Z,4.40
2019-03-28T17:29:05.508Z,9.27
2019-03-28T17:31:37.889Z,8.90
2019-03-28T17:34:09.766Z,9.87
2019-03-28T17:36:43.181Z,14.27
2019-03-28T17:39:15.748Z,11.03
2019-03-28T17:41:47.620Z,12.67
2019-03-28T17:44:19.677Z,16.10
2019-03-28T17:46:51.989Z,21.50
2019-03-28T17:49:23.955Z,25.53
2019-03-28T17:51:55.926Z,22.43
2019-03-28T17:54:28.623Z,32.43
2019-03-28T17:57:00.664Z,29.87
2019-03-28T17:59:32.445Z,34.03
2019-03-28T18:02:04.487Z,30.27
2019-03-28T18:04:47.459Z,31.63
2019-03-28T18:07:10.456Z,33.00
2019-03-28T18:09:42.634Z,31.70
2019-03-28T18:12:14.536Z,32.17
2019-03-28T18:14:47.237Z,31.67
2019-03-28T18:17:19.753Z,31.30
2019-03-28T18:19:52.472Z,31.97
2019-03-28T18:22:24.793Z,30.97
2019-03-28T18:24:57.009Z,29.40
2019-03-28T18:27:29.459Z,27.43
2019-03-28T18:30:01.325Z,28.87
2019-03-28T18:32:33.986Z,26.87
2019-03-28T18:35:08.083Z,27.70
2019-03-28T18:37:40.258Z,25.80
2019-03-28T18:40:12.198Z,24.47
2019-03-28T18:42:44.157Z,22.73
2019-03-28T18:45:16.264Z,25.50
2019-03-28T18:47:48.169Z,24.07
2019-03-28T18:50:20.281Z,22.20
2019-03-28T18:52:52.230Z,22.97
2019-03-28T18:55:24.113Z,30.97
2019-03-28T18:57:56.290Z,25.50
2019-03-28T19:00:28.630Z,27.13
2019-03-28T19:03:00.686Z,30.30
2019-03-28T19:05:32.806Z,37.10
2019-03-28T19:08:04.738Z,40.27
2019-03-28T19:10:37.731Z,45.63
2019-03-28T19:13:09.853Z,42.07
2019-03-28T19:15:41.889Z,46.97
2019-03-28T19:18:14.317Z,41.50
2019-03-28T19:20:46.315Z,51.07
2019-03-28T19:23:18.255Z,47.47
2019-03-28T19:25:50.848Z,48.50
2019-03-28T19:28:29.201Z,52.87
2019-03-28T19:30:58.391Z,52.10
2019-03-28T19:33:31.638Z,53.10
2019-03-28T19:36:05.222Z,54.50
2019-03-28T19:38:39.429Z,56.37
2019-03-28T19:41:11.480Z,55.33
2019-03-28T19:43:43.694Z,58.47
2019-03-28T19:46:15.940Z,67.40
2019-03-28T19:48:48.571Z,71.33
2019-03-28T19:51:21.410Z,67.60
2019-03-28T19:53:53.507Z,66.67
2019-03-28T19:56:26.026Z,69.27
2019-03-28T19:58:59.367Z,70.27
2019-03-28T20:01:31.617Z,45.47
2019-03-28T20:04:03.597Z,51.27
2019-03-28T20:06:36.656Z,27.40
2019-03-28T20:09:16.263Z,23.90
2019-03-28T20:11:43.005Z,15.67
2019-03-28T20:14:15.779Z,11.37
2019-03-28T20:16:48.355Z,10.47
2019-03-28T20:19:20.618Z,8.17
2019-03-28T20:21:52.648Z,7.30
2019-03-28T20:24:24.579Z,7.97
2019-03-28T20:26:56.647Z,7.27
2019-03-28T20:29:28.546Z,6.37
2019-03-28T20:32:02.245Z,5.83
2019-03-28T20:34:34.153Z,6.77
2019-03-28T20:37:06.085Z,6.50
2019-03-28T20:39:38.061Z,6.67
2019-03-28T20:42:09.943Z,6.97
2019-03-28T20:44:42.029Z,6.03
2019-03-28T20:47:14.060Z,6.57
2019-03-28T20:49:46.867Z,5.70
2019-03-28T20:52:19.916Z,6.43
2019-03-28T20:54:52.917Z,5.00
2019-03-28T20:57:25.227Z,4.33
2019-03-28T20:59:57.355Z,5.23
2019-03-28T21:02:29.266Z,5.00
2019-03-28T21:05:01.320Z,5.27
2019-03-28T21:07:33.326Z,5.77
2019-03-28T21:10:06.060Z,5.70
2019-03-28T21:12:37.886Z,5.97
2019-03-28T21:15:10.181Z,6.00
2019-03-28T21:17:43.319Z,5.90
2019-03-28T21:20:15.423Z,5.80
2019-03-28T21:22:47.561Z,5.43
2019-03-28T21:25:19.682Z,6.20
2019-03-28T21:27:52.019Z,6.90
2019-03-28T21:30:26.944Z,6.47
2019-03-28T21:32:58.309Z,5.90
2019-03-28T21:35:30.730Z,6.97
2019-03-28T21:38:03.309Z,8.10
2019-03-28T21:40:37.106Z,6.03
2019-03-28T21:43:09.481Z,8.10
2019-03-28T21:45:41.565Z,6.90
2019-03-28T21:48:13.693Z,7.03
2019-03-28T21:50:48.037Z,6.70
2019-03-28T21:53:21.635Z,6.80
2019-03-28T21:55:55.450Z,6.47
2019-03-28T21:58:27.718Z,6.50
2019-03-28T22:00:59.874Z,6.63
2019-03-28T22:03:31.872Z,6.97
2019-03-28T22:06:05.574Z,6.60
2019-03-28T22:08:37.664Z,6.97
2019-03-28T22:11:09.595Z,6.80
2019-03-28T22:13:41.572Z,7.00
2019-03-28T22:16:13.711Z,6.13
2019-03-28T22:18:46.091Z,6.87
2019-03-28T22:21:18.486Z,5.60
2019-03-28T22:23:51.260Z,7.00
2019-03-28T22:26:23.309Z,6.57
2019-03-28T22:28:55.295Z,6.50
2019-03-28T22:31:27.220Z,6.53
2019-03-28T22:33:59.195Z,6.23
2019-03-28T22:36:31.751Z,7.20
2019-03-28T22:39:05.643Z,6.40
2019-03-28T22:41:38.140Z,6.70
2019-03-28T22:44:10.093Z,7.60
2019-03-28T22:46:41.969Z,7.13
2019-03-28T22:49:13.946Z,7.07
2019-03-28T22:51:45.942Z,7.10
2019-03-28T22:54:17.778Z,7.07
2019-03-28T22:56:50.217Z,7.13
2019-03-28T22:59:22.030Z,7.67
2019-03-28T23:01:54.110Z,7.17
2019-03-28T23:04:26.390Z,7.43
2019-03-28T23:07:10.354Z,7.30
2019-03-28T23:09:33.796Z,7.73
2019-03-28T23:12:07.557Z,8.23
2019-03-28T23:14:42.195Z,8.17
2019-03-28T23:17:14.402Z,9.07
2019-03-28T23:19:46.544Z,9.30
2019-03-28T23:22:20.481Z,9.17
2019-03-28T23:24:54.628Z,9.57
2019-03-28T23:27:27.010Z,8.37
2019-03-28T23:29:59.361Z,9.27
2019-03-28T23:32:31.625Z,9.40
2019-03-28T23:35:03.937Z,9.23
2019-03-28T23:37:36.648Z,9.13
2019-03-28T23:40:09.036Z,8.90
2019-03-28T23:42:41.513Z,10.27
2019-03-28T23:45:15.756Z,9.47
2019-03-28T23:47:48.074Z,9.23
2019-03-28T23:50:20.939Z,9.20
2019-03-28T23:52:53.954Z,9.50
2019-03-28T23:55:26.942Z,8.93
2019-03-28T23:57:59.921Z,9.90
